Briefing drone pour Le chambon-feugerolles

Rechercher une autre localisation

Conditions de vol :


Nous sommes le : Dimanche 25 septembre 2022
Il est 23:41 UTC (01:41 LT)

Lever de soleil : 05:06 UTC (07:06 LT)
Coucher de soleil : 18:02 UTC (20:02 LT)

Météo

L'essentiel des conditions de vol

VIGILANCE MÉTÉO FRANCE - Loire (42)
Vigilance Jaune : Orages
CARTE TEMSI
CARTES DES FRONTS
METAR de LFMH
LFMH 242330Z AUTO 02006KT 6000 -RA FEW013/// BKN046/// OVC068/// ///TCU 12/11 Q1014

Date d'émission: 24/09/2022
Heure d'émission: 23:30 UTC
Vent: 020° pour 6 KT (11 km/h)
Visibilité horizontale: 6000 m
Plafond :
- Peu de nuages à 1300ft (396m)
- Nuages morcelés à 4600ft (1402m)
- Couvert à 6800ft (2073m)
Température: 12 °C
Point de rosée: 11 °C
Humidité: 94%
Pression (QNH): 1014 hPa
Conditions: Faible pluie
TAF de LFMH
LFMH 161901Z 1619/1712 CNL

Conditions prévues :

Heure d'émission : Bulletin éffectué le 16 à 19:00 UTC
Prévision : Valide du 16 a 19:00 UTC au 17 a 12:00 UTC
Nuages : à 0ft (0 m)
WEBCAM POUR LE CHAMBON-FEUGEROLLES

Réglementation

Voler en sécurité

CARTES AERONAUTIQUE 1/500.000
CARTE AZBA (Reseau basse altitude)
CARTES VAC (LFMH)
SUP AIP




Chargement des AIP...
NOTAM (LE CHAMBON-FEUGEROLLES + Terrain à proximité / FIR )




Chargement des NOTAMS...
CONTACT PREFECTURE 42


Avertissement : Les données mises à disposition sont indicatives. Oxygène Drone ne pourra être tenu responsable de dégâts causés aux biens et aux personnes.